sensor_id;sensor_type;location;lat;lon;timestamp;temperature;humidity
41882;DHT22;27562;47.524;12.404;2024-01-10T00:01:23;-7.60;99.90
41882;DHT22;27562;47.524;12.404;2024-01-10T00:03:54;-7.60;99.90
41882;DHT22;27562;47.524;12.404;2024-01-10T00:06:19;-7.70;99.90
41882;DHT22;27562;47.524;12.404;2024-01-10T00:08:45;-7.70;99.90
41882;DHT22;27562;47.524;12.404;2024-01-10T00:11:11;-7.60;99.90
41882;DHT22;27562;47.524;12.404;2024-01-10T00:13:37;-7.60;99.90
41882;DHT22;27562;47.524;12.404;2024-01-10T00:16:03;-7.60;99.90
41882;DHT22;27562;47.524;12.404;2024-01-10T00:18:28;-7.60;99.90
41882;DHT22;27562;47.524;12.404;2024-01-10T00:20:54;-7.60;99.90
41882;DHT22;27562;47.524;12.404;2024-01-10T00:23:21;-7.70;99.90
41882;DHT22;27562;47.524;12.404;2024-01-10T00:25:47;-7.70;99.90
41882;DHT22;27562;47.524;12.404;2024-01-10T00:28:13;-7.70;99.90
41882;DHT22;27562;47.524;12.404;2024-01-10T00:30:39;-7.70;99.90
41882;DHT22;27562;47.524;12.404;2024-01-10T00:33:05;-7.70;99.90
41882;DHT22;27562;47.524;12.404;2024-01-10T00:35:31;-7.70;99.90
41882;DHT22;27562;47.524;12.404;2024-01-10T00:37:57;-7.70;99.90
41882;DHT22;27562;47.524;12.404;2024-01-10T00:40:23;-7.70;99.90
41882;DHT22;27562;47.524;12.404;2024-01-10T00:42:48;-7.70;99.90
41882;DHT22;27562;47.524;12.404;2024-01-10T00:45:15;-7.70;99.90
41882;DHT22;27562;47.524;12.404;2024-01-10T00:47:41;-7.80;99.90
41882;DHT22;27562;47.524;12.404;2024-01-10T00:50:07;-7.80;99.90
41882;DHT22;27562;47.524;12.404;2024-01-10T00:52:33;-7.80;99.90
41882;DHT22;27562;47.524;12.404;2024-01-10T00:55:02;-7.90;99.90
41882;DHT22;27562;47.524;12.404;2024-01-10T00:57:28;-8.00;99.90
41882;DHT22;27562;47.524;12.404;2024-01-10T00:59:54;-8.10;99.90
41882;DHT22;27562;47.524;12.404;2024-01-10T01:02:21;-8.10;99.90
41882;DHT22;27562;47.524;12.404;2024-01-10T01:04:47;-8.10;99.90
41882;DHT22;27562;47.524;12.404;2024-01-10T01:07:13;-8.10;99.90
41882;DHT22;27562;47.524;12.404;2024-01-10T01:09:39;-8.00;99.90
41882;DHT22;27562;47.524;12.404;2024-01-10T01:12:06;-8.00;99.90
41882;DHT22;27562;47.524;12.404;2024-01-10T01:14:32;-8.00;99.90
41882;DHT22;27562;47.524;12.404;2024-01-10T01:16:59;-8.00;99.90
41882;DHT22;27562;47.524;12.404;2024-01-10T01:19:28;-7.90;99.90
41882;DHT22;27562;47.524;12.404;2024-01-10T01:21:54;-7.90;99.90
41882;DHT22;27562;47.524;12.404;2024-01-10T01:24:23;-7.90;99.90
41882;DHT22;27562;47.524;12.404;2024-01-10T01:26:49;-7.90;99.90
41882;DHT22;27562;47.524;12.404;2024-01-10T01:29:14;-7.90;99.90
41882;DHT22;27562;47.524;12.404;2024-01-10T01:31:40;-7.90;99.90
41882;DHT22;27562;47.524;12.404;2024-01-10T01:34:06;-8.00;99.90
41882;DHT22;27562;47.524;12.404;2024-01-10T01:36:32;-8.00;99.90
41882;DHT22;27562;47.524;12.404;2024-01-10T01:38:58;-8.10;99.90
41882;DHT22;27562;47.524;12.404;2024-01-10T01:41:24;-8.10;99.90
41882;DHT22;27562;47.524;12.404;2024-01-10T01:43:50;-8.10;99.90
41882;DHT22;27562;47.524;12.404;2024-01-10T01:46:17;-8.00;99.90
41882;DHT22;27562;47.524;12.404;2024-01-10T01:48:43;-8.10;99.90
41882;DHT22;27562;47.524;12.404;2024-01-10T01:51:11;-8.10;99.90
41882;DHT22;27562;47.524;12.404;2024-01-10T01:53:39;-8.10;99.90
41882;DHT22;27562;47.524;12.404;2024-01-10T01:56:08;-8.00;99.90
41882;DHT22;27562;47.524;12.404;2024-01-10T01:58:35;-8.00;99.90
41882;DHT22;27562;47.524;12.404;2024-01-10T02:01:03;-8.10;99.90
41882;DHT22;27562;47.524;12.404;2024-01-10T02:03:31;-8.10;99.90
41882;DHT22;27562;47.524;12.404;2024-01-10T02:05:57;-8.10;99.90
41882;DHT22;27562;47.524;12.404;2024-01-10T02:08:23;-8.10;99.90
41882;DHT22;27562;47.524;12.404;2024-01-10T02:10:49;-8.10;99.90
41882;DHT22;27562;47.524;12.404;2024-01-10T02:13:15;-8.20;99.90
41882;DHT22;27562;47.524;12.404;2024-01-10T02:15:42;-8.20;99.90
41882;DHT22;27562;47.524;12.404;2024-01-10T02:18:08;-8.20;99.90
41882;DHT22;27562;47.524;12.404;2024-01-10T02:20:38;-8.20;99.90
41882;DHT22;27562;47.524;12.404;2024-01-10T02:23:03;-8.20;99.90
41882;DHT22;27562;47.524;12.404;2024-01-10T02:25:29;-8.20;99.90
41882;DHT22;27562;47.524;12.404;2024-01-10T02:27:55;-8.20;99.90
41882;DHT22;27562;47.524;12.404;2024-01-10T02:30:20;-8.20;99.90
41882;DHT22;27562;47.524;12.404;2024-01-10T02:32:46;-8.20;99.90
41882;DHT22;27562;47.524;12.404;2024-01-10T02:35:12;-8.20;99.90
41882;DHT22;27562;47.524;12.404;2024-01-10T02:37:38;-8.20;99.90
41882;DHT22;27562;47.524;12.404;2024-01-10T02:40:04;-8.20;99.90
41882;DHT22;27562;47.524;12.404;2024-01-10T02:42:31;-8.20;99.90
41882;DHT22;27562;47.524;12.404;2024-01-10T02:44:57;-8.20;99.90
41882;DHT22;27562;47.524;12.404;2024-01-10T02:47:22;-8.20;99.90
41882;DHT22;27562;47.524;12.404;2024-01-10T02:49:48;-8.20;99.90
41882;DHT22;27562;47.524;12.404;2024-01-10T02:52:13;-8.20;99.90
41882;DHT22;27562;47.524;12.404;2024-01-10T02:54:39;-8.30;99.90
41882;DHT22;27562;47.524;12.404;2024-01-10T02:57:05;-8.30;99.90
41882;DHT22;27562;47.524;12.404;2024-01-10T02:59:30;-8.30;99.90
41882;DHT22;27562;47.524;12.404;2024-01-10T03:01:56;-8.30;99.90
41882;DHT22;27562;47.524;12.404;2024-01-10T03:04:22;-8.20;99.90
41882;DHT22;27562;47.524;12.404;2024-01-10T03:06:48;-8.20;99.90
41882;DHT22;27562;47.524;12.404;2024-01-10T03:09:14;-8.20;99.90
41882;DHT22;27562;47.524;12.404;2024-01-10T03:11:40;-8.20;99.90
41882;DHT22;27562;47.524;12.404;2024-01-10T03:14:10;-8.30;99.90
41882;DHT22;27562;47.524;12.404;2024-01-10T03:16:36;-8.30;99.90
41882;DHT22;27562;47.524;12.404;2024-01-10T03:19:02;-8.20;99.90
41882;DHT22;27562;47.524;12.404;2024-01-10T03:21:28;-8.30;99.90
41882;DHT22;27562;47.524;12.404;2024-01-10T03:23:57;-8.40;99.90
41882;DHT22;27562;47.524;12.404;2024-01-10T03:26:24;-8.40;99.90
41882;DHT22;27562;47.524;12.404;2024-01-10T03:28:51;-8.40;99.90
41882;DHT22;27562;47.524;12.404;2024-01-10T03:31:17;-8.50;99.90
41882;DHT22;27562;47.524;12.404;2024-01-10T03:33:42;-8.50;99.90
41882;DHT22;27562;47.524;12.404;2024-01-10T03:36:16;-8.50;99.90
41882;DHT22;27562;47.524;12.404;2024-01-10T03:38:42;-8.50;99.90
41882;DHT22;27562;47.524;12.404;2024-01-10T03:41:13;-8.50;99.90
41882;DHT22;27562;47.524;12.404;2024-01-10T03:43:39;-8.50;99.90
41882;DHT22;27562;47.524;12.404;2024-01-10T03:46:04;-8.50;99.90
41882;DHT22;27562;47.524;12.404;2024-01-10T03:48:31;-8.50;99.90
41882;DHT22;27562;47.524;12.404;2024-01-10T03:50:57;-8.50;99.90
41882;DHT22;27562;47.524;12.404;2024-01-10T03:53:22;-8.50;99.90
41882;DHT22;27562;47.524;12.404;2024-01-10T03:55:48;-8.50;99.90
41882;DHT22;27562;47.524;12.404;2024-01-10T03:58:14;-8.50;99.90
41882;DHT22;27562;47.524;12.404;2024-01-10T04:00:39;-8.50;99.90
41882;DHT22;27562;47.524;12.404;2024-01-10T04:03:05;-8.50;99.90
41882;DHT22;27562;47.524;12.404;2024-01-10T04:05:31;-8.50;99.90
41882;DHT22;27562;47.524;12.404;2024-01-10T04:07:56;-8.50;99.90
41882;DHT22;27562;47.524;12.404;2024-01-10T04:10:22;-8.50;99.90
41882;DHT22;27562;47.524;12.404;2024-01-10T04:12:48;-8.50;99.90
41882;DHT22;27562;47.524;12.404;2024-01-10T04:15:14;-8.50;99.90
41882;DHT22;27562;47.524;12.404;2024-01-10T04:17:40;-8.50;99.90
41882;DHT22;27562;47.524;12.404;2024-01-10T04:20:06;-8.50;99.90
41882;DHT22;27562;47.524;12.404;2024-01-10T04:22:32;-8.50;99.90
41882;DHT22;27562;47.524;12.404;2024-01-10T04:24:59;-8.50;99.90
41882;DHT22;27562;47.524;12.404;2024-01-10T04:27:26;-8.50;99.90
41882;DHT22;27562;47.524;12.404;2024-01-10T04:29:51;-8.60;99.90
41882;DHT22;27562;47.524;12.404;2024-01-10T04:32:17;-8.60;99.90
41882;DHT22;27562;47.524;12.404;2024-01-10T04:34:42;-8.60;99.90
41882;DHT22;27562;47.524;12.404;2024-01-10T04:37:08;-8.60;99.90
41882;DHT22;27562;47.524;12.404;2024-01-10T04:39:34;-8.60;99.90
41882;DHT22;27562;47.524;12.404;2024-01-10T04:42:01;-8.50;99.90
41882;DHT22;27562;47.524;12.404;2024-01-10T04:44:26;-8.50;99.90
41882;DHT22;27562;47.524;12.404;2024-01-10T04:46:52;-8.50;99.90
41882;DHT22;27562;47.524;12.404;2024-01-10T04:49:18;-8.50;99.90
41882;DHT22;27562;47.524;12.404;2024-01-10T04:51:44;-8.50;99.90
41882;DHT22;27562;47.524;12.404;2024-01-10T04:54:10;-8.50;99.90
41882;DHT22;27562;47.524;12.404;2024-01-10T04:56:37;-8.50;99.90
41882;DHT22;27562;47.524;12.404;2024-01-10T04:59:03;-8.50;99.90
41882;DHT22;27562;47.524;12.404;2024-01-10T05:01:29;-8.50;99.90
41882;DHT22;27562;47.524;12.404;2024-01-10T05:03:54;-8.60;99.90
41882;DHT22;27562;47.524;12.404;2024-01-10T05:06:20;-8.50;99.90
41882;DHT22;27562;47.524;12.404;2024-01-10T05:08:46;-8.60;99.90
41882;DHT22;27562;47.524;12.404;2024-01-10T05:11:12;-8.60;99.90
41882;DHT22;27562;47.524;12.404;2024-01-10T05:13:38;-8.50;99.90
41882;DHT22;27562;47.524;12.404;2024-01-10T05:16:05;-8.50;99.90
41882;DHT22;27562;47.524;12.404;2024-01-10T05:18:30;-8.50;99.90
41882;DHT22;27562;47.524;12.404;2024-01-10T05:20:56;-8.50;99.90
41882;DHT22;27562;47.524;12.404;2024-01-10T05:23:23;-8.40;99.90
41882;DHT22;27562;47.524;12.404;2024-01-10T05:25:48;-8.50;99.90
41882;DHT22;27562;47.524;12.404;2024-01-10T05:28:14;-8.40;99.90
41882;DHT22;27562;47.524;12.404;2024-01-10T05:30:40;-8.50;99.90
41882;DHT22;27562;47.524;12.404;2024-01-10T05:33:08;-8.50;99.90
41882;DHT22;27562;47.524;12.404;2024-01-10T05:35:33;-8.50;99.90
41882;DHT22;27562;47.524;12.404;2024-01-10T05:38:01;-8.50;99.90
41882;DHT22;27562;47.524;12.404;2024-01-10T05:40:28;-8.50;99.90
41882;DHT22;27562;47.524;12.404;2024-01-10T05:42:55;-8.50;99.90
41882;DHT22;27562;47.524;12.404;2024-01-10T05:45:21;-8.50;99.90
41882;DHT22;27562;47.524;12.404;2024-01-10T05:47:47;-8.50;99.90
41882;DHT22;27562;47.524;12.404;2024-01-10T05:50:14;-8.50;99.90
41882;DHT22;27562;47.524;12.404;2024-01-10T05:52:40;-8.60;99.90
41882;DHT22;27562;47.524;12.404;2024-01-10T05:55:06;-8.70;99.90
41882;DHT22;27562;47.524;12.404;2024-01-10T05:57:35;-8.70;99.90
41882;DHT22;27562;47.524;12.404;2024-01-10T06:00:00;-8.80;99.90
41882;DHT22;27562;47.524;12.404;2024-01-10T06:02:26;-8.80;99.90
41882;DHT22;27562;47.524;12.404;2024-01-10T06:04:52;-8.80;99.90
41882;DHT22;27562;47.524;12.404;2024-01-10T06:07:18;-8.80;99.90
41882;DHT22;27562;47.524;12.404;2024-01-10T06:09:44;-8.80;99.90
41882;DHT22;27562;47.524;12.404;2024-01-10T06:12:09;-8.70;99.90
41882;DHT22;27562;47.524;12.404;2024-01-10T06:14:35;-8.70;99.90
41882;DHT22;27562;47.524;12.404;2024-01-10T06:17:01;-8.70;99.90
41882;DHT22;27562;47.524;12.404;2024-01-10T06:19:29;-8.90;99.90
41882;DHT22;27562;47.524;12.404;2024-01-10T06:21:56;-9.00;99.90
41882;DHT22;27562;47.524;12.404;2024-01-10T06:24:22;-9.10;99.90
41882;DHT22;27562;47.524;12.404;2024-01-10T06:26:48;-9.20;99.90
41882;DHT22;27562;47.524;12.404;2024-01-10T06:29:15;-9.20;99.90
41882;DHT22;27562;47.524;12.404;2024-01-10T06:31:41;-9.10;99.90
41882;DHT22;27562;47.524;12.404;2024-01-10T06:34:07;-9.10;99.90
41882;DHT22;27562;47.524;12.404;2024-01-10T06:36:33;-9.10;99.90
41882;DHT22;27562;47.524;12.404;2024-01-10T06:38:58;-9.10;99.90
41882;DHT22;27562;47.524;12.404;2024-01-10T06:41:25;-9.10;99.90
41882;DHT22;27562;47.524;12.404;2024-01-10T06:43:52;-9.10;99.90
41882;DHT22;27562;47.524;12.404;2024-01-10T06:46:18;-9.10;99.90
41882;DHT22;27562;47.524;12.404;2024-01-10T06:48:44;-9.20;99.90
41882;DHT22;27562;47.524;12.404;2024-01-10T06:51:13;-9.20;99.90
41882;DHT22;27562;47.524;12.404;2024-01-10T06:53:39;-9.20;99.90
41882;DHT22;27562;47.524;12.404;2024-01-10T06:56:06;-9.20;99.90
41882;DHT22;27562;47.524;12.404;2024-01-10T06:58:32;-9.30;99.90
41882;DHT22;27562;47.524;12.404;2024-01-10T07:00:58;-9.30;99.90
41882;DHT22;27562;47.524;12.404;2024-01-10T07:03:26;-9.50;99.90
41882;DHT22;27562;47.524;12.404;2024-01-10T07:05:52;-9.60;99.90
41882;DHT22;27562;47.524;12.404;2024-01-10T07:08:18;-9.60;99.90
41882;DHT22;27562;47.524;12.404;2024-01-10T07:10:43;-9.50;99.90
41882;DHT22;27562;47.524;12.404;2024-01-10T07:13:10;-9.50;99.90
41882;DHT22;27562;47.524;12.404;2024-01-10T07:15:36;-9.40;99.90
41882;DHT22;27562;47.524;12.404;2024-01-10T07:18:02;-9.30;99.90
41882;DHT22;27562;47.524;12.404;2024-01-10T07:20:28;-9.30;99.90
41882;DHT22;27562;47.524;12.404;2024-01-10T07:22:54;-9.30;99.90
41882;DHT22;27562;47.524;12.404;2024-01-10T07:25:20;-9.20;99.90
41882;DHT22;27562;47.524;12.404;2024-01-10T07:27:47;-9.20;99.90
41882;DHT22;27562;47.524;12.404;2024-01-10T07:30:13;-9.10;99.90
41882;DHT22;27562;47.524;12.404;2024-01-10T07:32:46;-9.10;99.90
41882;DHT22;27562;47.524;12.404;2024-01-10T07:35:12;-9.00;99.90
41882;DHT22;27562;47.524;12.404;2024-01-10T07:37:41;-9.00;99.90
41882;DHT22;27562;47.524;12.404;2024-01-10T07:40:08;-9.00;99.90
41882;DHT22;27562;47.524;12.404;2024-01-10T07:42:36;-8.90;99.90
41882;DHT22;27562;47.524;12.404;2024-01-10T07:45:02;-9.00;99.90
41882;DHT22;27562;47.524;12.404;2024-01-10T07:47:30;-9.00;99.90
41882;DHT22;27562;47.524;12.404;2024-01-10T07:49:57;-9.00;99.90
41882;DHT22;27562;47.524;12.404;2024-01-10T07:52:23;-8.90;99.90
41882;DHT22;27562;47.524;12.404;2024-01-10T07:54:48;-8.90;99.90
41882;DHT22;27562;47.524;12.404;2024-01-10T07:57:14;-9.00;99.90
41882;DHT22;27562;47.524;12.404;2024-01-10T07:59:40;-9.10;99.90
41882;DHT22;27562;47.524;12.404;2024-01-10T08:02:05;-9.10;99.90
41882;DHT22;27562;47.524;12.404;2024-01-10T08:04:32;-9.10;99.90
41882;DHT22;27562;47.524;12.404;2024-01-10T08:06:58;-9.10;99.90
41882;DHT22;27562;47.524;12.404;2024-01-10T08:09:24;-9.00;99.90
41882;DHT22;27562;47.524;12.404;2024-01-10T08:11:50;-9.10;99.90
41882;DHT22;27562;47.524;12.404;2024-01-10T08:14:15;-9.10;99.90
41882;DHT22;27562;47.524;12.404;2024-01-10T08:16:42;-9.10;99.90
41882;DHT22;27562;47.524;12.404;2024-01-10T08:19:08;-9.00;99.90
41882;DHT22;27562;47.524;12.404;2024-01-10T08:21:34;-9.00;99.90
41882;DHT22;27562;47.524;12.404;2024-01-10T08:24:01;-8.90;99.90
41882;DHT22;27562;47.524;12.404;2024-01-10T08:26:27;-8.90;99.90
41882;DHT22;27562;47.524;12.404;2024-01-10T08:28:53;-8.90;99.90
41882;DHT22;27562;47.524;12.404;2024-01-10T08:31:19;-8.90;99.90
41882;DHT22;27562;47.524;12.404;2024-01-10T08:33:45;-8.90;99.90
41882;DHT22;27562;47.524;12.404;2024-01-10T08:36:12;-8.90;99.90
41882;DHT22;27562;47.524;12.404;2024-01-10T08:38:38;-8.80;99.90
41882;DHT22;27562;47.524;12.404;2024-01-10T08:41:04;-8.80;99.90
41882;DHT22;27562;47.524;12.404;2024-01-10T08:43:30;-8.80;99.90
41882;DHT22;27562;47.524;12.404;2024-01-10T08:45:56;-8.70;99.90
41882;DHT22;27562;47.524;12.404;2024-01-10T08:48:23;-8.70;99.90
41882;DHT22;27562;47.524;12.404;2024-01-10T08:50:50;-8.60;99.90
41882;DHT22;27562;47.524;12.404;2024-01-10T08:53:15;-8.60;99.90
41882;DHT22;27562;47.524;12.404;2024-01-10T08:55:42;-8.50;99.90
41882;DHT22;27562;47.524;12.404;2024-01-10T08:58:07;-8.50;99.90
41882;DHT22;27562;47.524;12.404;2024-01-10T09:00:33;-8.40;99.90
41882;DHT22;27562;47.524;12.404;2024-01-10T09:03:00;-8.40;99.90
41882;DHT22;27562;47.524;12.404;2024-01-10T09:05:26;-8.40;99.90
41882;DHT22;27562;47.524;12.404;2024-01-10T09:07:51;-8.40;99.90
41882;DHT22;27562;47.524;12.404;2024-01-10T09:10:19;-8.40;99.90
41882;DHT22;27562;47.524;12.404;2024-01-10T09:12:47;-8.40;99.90
41882;DHT22;27562;47.524;12.404;2024-01-10T09:15:13;-8.30;99.90
41882;DHT22;27562;47.524;12.404;2024-01-10T09:17:42;-8.20;99.90
41882;DHT22;27562;47.524;12.404;2024-01-10T09:20:09;-8.20;99.90
41882;DHT22;27562;47.524;12.404;2024-01-10T09:22:35;-8.20;99.90
41882;DHT22;27562;47.524;12.404;2024-01-10T09:25:01;-8.20;99.90
41882;DHT22;27562;47.524;12.404;2024-01-10T09:27:30;-8.20;99.90
41882;DHT22;27562;47.524;12.404;2024-01-10T09:29:56;-8.10;99.90
41882;DHT22;27562;47.524;12.404;2024-01-10T09:32:22;-8.00;99.90
41882;DHT22;27562;47.524;12.404;2024-01-10T09:34:48;-7.90;99.90
41882;DHT22;27562;47.524;12.404;2024-01-10T09:37:13;-7.80;99.90
41882;DHT22;27562;47.524;12.404;2024-01-10T09:39:39;-7.70;99.90
41882;DHT22;27562;47.524;12.404;2024-01-10T09:42:05;-7.70;99.90
41882;DHT22;27562;47.524;12.404;2024-01-10T09:44:32;-7.60;99.90
41882;DHT22;27562;47.524;12.404;2024-01-10T09:46:58;-7.60;99.90
41882;DHT22;27562;47.524;12.404;2024-01-10T09:49:26;-7.50;99.90
41882;DHT22;27562;47.524;12.404;2024-01-10T09:51:57;-7.40;99.90
41882;DHT22;27562;47.524;12.404;2024-01-10T09:54:26;-7.40;99.90
41882;DHT22;27562;47.524;12.404;2024-01-10T09:56:51;-7.30;99.90
41882;DHT22;27562;47.524;12.404;2024-01-10T09:59:18;-7.10;99.90
41882;DHT22;27562;47.524;12.404;2024-01-10T10:01:44;-7.00;99.90
41882;DHT22;27562;47.524;12.404;2024-01-10T10:04:12;-7.00;99.90
41882;DHT22;27562;47.524;12.404;2024-01-10T10:06:38;-6.80;99.90
41882;DHT22;27562;47.524;12.404;2024-01-10T10:09:03;-6.80;99.90
41882;DHT22;27562;47.524;12.404;2024-01-10T10:11:30;-6.70;99.90
41882;DHT22;27562;47.524;12.404;2024-01-10T10:13:55;-6.60;99.90
41882;DHT22;27562;47.524;12.404;2024-01-10T10:16:25;-6.60;99.90
41882;DHT22;27562;47.524;12.404;2024-01-10T10:18:54;-6.60;99.90
41882;DHT22;27562;47.524;12.404;2024-01-10T10:21:25;-6.50;99.90
41882;DHT22;27562;47.524;12.404;2024-01-10T10:24:01;-6.40;99.90
41882;DHT22;27562;47.524;12.404;2024-01-10T10:26:32;-6.40;99.90
41882;DHT22;27562;47.524;12.404;2024-01-10T10:28:58;-6.30;99.90
41882;DHT22;27562;47.524;12.404;2024-01-10T10:31:25;-6.20;99.90
41882;DHT22;27562;47.524;12.404;2024-01-10T10:33:51;-6.10;99.90
41882;DHT22;27562;47.524;12.404;2024-01-10T10:36:18;-6.10;99.90
41882;DHT22;27562;47.524;12.404;2024-01-10T10:38:46;-6.10;99.90
41882;DHT22;27562;47.524;12.404;2024-01-10T10:41:13;-6.00;99.90
41882;DHT22;27562;47.524;12.404;2024-01-10T10:43:40;-6.00;99.90
41882;DHT22;27562;47.524;12.404;2024-01-10T10:46:09;-6.00;99.90
41882;DHT22;27562;47.524;12.404;2024-01-10T10:48:38;-5.90;99.90
41882;DHT22;27562;47.524;12.404;2024-01-10T10:53:34;-5.80;99.90
41882;DHT22;27562;47.524;12.404;2024-01-10T10:56:04;-5.70;99.90
41882;DHT22;27562;47.524;12.404;2024-01-10T10:58:34;-5.70;99.90
41882;DHT22;27562;47.524;12.404;2024-01-10T11:01:04;-5.60;99.90
41882;DHT22;27562;47.524;12.404;2024-01-10T11:03:38;-5.60;99.90
41882;DHT22;27562;47.524;12.404;2024-01-10T11:06:05;-5.50;99.90
41882;DHT22;27562;47.524;12.404;2024-01-10T11:08:36;-5.50;99.90
41882;DHT22;27562;47.524;12.404;2024-01-10T11:11:12;-5.40;99.90
41882;DHT22;27562;47.524;12.404;2024-01-10T11:19:53;-5.20;99.90
41882;DHT22;27562;47.524;12.404;2024-01-10T11:24:59;-5.10;99.90
41882;DHT22;27562;47.524;12.404;2024-01-10T11:27:26;-5.00;99.90
41882;DHT22;27562;47.524;12.404;2024-01-10T11:29:52;-5.00;99.90
41882;DHT22;27562;47.524;12.404;2024-01-10T11:32:22;-4.90;99.90
41882;DHT22;27562;47.524;12.404;2024-01-10T11:34:55;-4.80;99.90
41882;DHT22;27562;47.524;12.404;2024-01-10T11:37:27;-4.80;99.90
41882;DHT22;27562;47.524;12.404;2024-01-10T11:39:53;-4.70;99.90
41882;DHT22;27562;47.524;12.404;2024-01-10T11:42:23;-4.70;99.90
41882;DHT22;27562;47.524;12.404;2024-01-10T11:44:50;-4.70;99.90
41882;DHT22;27562;47.524;12.404;2024-01-10T11:47:17;-4.70;99.90
41882;DHT22;27562;47.524;12.404;2024-01-10T11:49:58;-4.70;99.90
41882;DHT22;27562;47.524;12.404;2024-01-10T11:52:32;-4.60;99.90
41882;DHT22;27562;47.524;12.404;2024-01-10T11:54:58;-4.50;99.90
41882;DHT22;27562;47.524;12.404;2024-01-10T11:57:28;-4.50;99.90
41882;DHT22;27562;47.524;12.404;2024-01-10T11:59:55;-4.40;99.90
41882;DHT22;27562;47.524;12.404;2024-01-10T12:02:22;-4.40;99.90
41882;DHT22;27562;47.524;12.404;2024-01-10T12:04:50;-4.30;99.90
41882;DHT22;27562;47.524;12.404;2024-01-10T12:07:17;-4.30;99.90
41882;DHT22;27562;47.524;12.404;2024-01-10T12:09:43;-4.20;99.90
41882;DHT22;27562;47.524;12.404;2024-01-10T12:12:09;-4.20;99.90
41882;DHT22;27562;47.524;12.404;2024-01-10T12:14:37;-4.10;99.90
41882;DHT22;27562;47.524;12.404;2024-01-10T12:17:05;-4.10;99.90
41882;DHT22;27562;47.524;12.404;2024-01-10T12:19:34;-4.00;99.90
41882;DHT22;27562;47.524;12.404;2024-01-10T12:22:00;-3.90;99.90
41882;DHT22;27562;47.524;12.404;2024-01-10T12:24:27;-3.90;99.90
41882;DHT22;27562;47.524;12.404;2024-01-10T12:26:55;-3.80;99.90
41882;DHT22;27562;47.524;12.404;2024-01-10T12:29:21;-3.70;99.90
41882;DHT22;27562;47.524;12.404;2024-01-10T12:31:48;-3.60;99.90
41882;DHT22;27562;47.524;12.404;2024-01-10T12:34:14;-3.50;99.90
41882;DHT22;27562;47.524;12.404;2024-01-10T12:36:41;-3.40;99.90
41882;DHT22;27562;47.524;12.404;2024-01-10T12:39:07;-3.40;99.90
41882;DHT22;27562;47.524;12.404;2024-01-10T12:41:33;-3.30;99.90
41882;DHT22;27562;47.524;12.404;2024-01-10T12:44:03;-3.20;99.90
41882;DHT22;27562;47.524;12.404;2024-01-10T12:46:30;-3.20;99.90
41882;DHT22;27562;47.524;12.404;2024-01-10T12:49:00;-3.10;99.90
41882;DHT22;27562;47.524;12.404;2024-01-10T12:51:27;-3.00;99.90
41882;DHT22;27562;47.524;12.404;2024-01-10T12:53:55;-3.00;99.90
41882;DHT22;27562;47.524;12.404;2024-01-10T12:56:21;-3.00;99.90
41882;DHT22;27562;47.524;12.404;2024-01-10T12:58:47;-3.00;99.90
41882;DHT22;27562;47.524;12.404;2024-01-10T13:01:12;-3.00;99.90
41882;DHT22;27562;47.524;12.404;2024-01-10T13:03:39;-2.90;99.90
41882;DHT22;27562;47.524;12.404;2024-01-10T13:06:05;-2.80;99.90
41882;DHT22;27562;47.524;12.404;2024-01-10T13:08:31;-2.70;99.90
41882;DHT22;27562;47.524;12.404;2024-01-10T13:10:57;-2.60;99.90
41882;DHT22;27562;47.524;12.404;2024-01-10T13:13:25;-2.60;99.90
41882;DHT22;27562;47.524;12.404;2024-01-10T13:15:51;-2.50;99.90
41882;DHT22;27562;47.524;12.404;2024-01-10T13:18:17;-2.40;99.90
41882;DHT22;27562;47.524;12.404;2024-01-10T13:20:44;-2.40;99.90
41882;DHT22;27562;47.524;12.404;2024-01-10T13:23:10;-2.30;99.90
41882;DHT22;27562;47.524;12.404;2024-01-10T13:25:36;-2.20;99.90
41882;DHT22;27562;47.524;12.404;2024-01-10T13:28:03;-2.10;99.90
41882;DHT22;27562;47.524;12.404;2024-01-10T13:30:29;-2.10;99.90
41882;DHT22;27562;47.524;12.404;2024-01-10T13:32:55;-2.00;99.90
41882;DHT22;27562;47.524;12.404;2024-01-10T13:35:21;-2.00;99.90
41882;DHT22;27562;47.524;12.404;2024-01-10T13:37:48;-2.00;99.90
41882;DHT22;27562;47.524;12.404;2024-01-10T13:40:13;-1.90;99.90
41882;DHT22;27562;47.524;12.404;2024-01-10T13:42:40;-2.00;99.90
41882;DHT22;27562;47.524;12.404;2024-01-10T13:45:06;-2.00;99.90
41882;DHT22;27562;47.524;12.404;2024-01-10T13:47:33;-2.00;99.90
41882;DHT22;27562;47.524;12.404;2024-01-10T13:50:00;-2.10;99.90
41882;DHT22;27562;47.524;12.404;2024-01-10T13:52:25;-2.10;99.90
41882;DHT22;27562;47.524;12.404;2024-01-10T13:54:51;-2.20;99.90
41882;DHT22;27562;47.524;12.404;2024-01-10T13:57:17;-2.20;99.90
41882;DHT22;27562;47.524;12.404;2024-01-10T13:59:43;-2.20;99.90
41882;DHT22;27562;47.524;12.404;2024-01-10T14:02:10;-2.20;99.90
41882;DHT22;27562;47.524;12.404;2024-01-10T14:04:36;-2.20;99.90
41882;DHT22;27562;47.524;12.404;2024-01-10T14:07:01;-2.20;99.90
41882;DHT22;27562;47.524;12.404;2024-01-10T14:09:30;-2.10;99.90
41882;DHT22;27562;47.524;12.404;2024-01-10T14:11:55;-2.10;99.90
41882;DHT22;27562;47.524;12.404;2024-01-10T14:14:21;-2.10;99.90
41882;DHT22;27562;47.524;12.404;2024-01-10T14:16:47;-2.00;99.90
41882;DHT22;27562;47.524;12.404;2024-01-10T14:19:13;-2.00;99.90
41882;DHT22;27562;47.524;12.404;2024-01-10T14:21:39;-2.00;99.90
41882;DHT22;27562;47.524;12.404;2024-01-10T14:24:05;-2.00;99.90
41882;DHT22;27562;47.524;12.404;2024-01-10T14:26:32;-2.00;99.90
41882;DHT22;27562;47.524;12.404;2024-01-10T14:28:57;-2.00;99.90
41882;DHT22;27562;47.524;12.404;2024-01-10T14:31:24;-2.00;99.90
41882;DHT22;27562;47.524;12.404;2024-01-10T14:33:50;-2.00;99.90
41882;DHT22;27562;47.524;12.404;2024-01-10T14:36:16;-2.00;99.90
41882;DHT22;27562;47.524;12.404;2024-01-10T14:38:42;-2.00;99.90
41882;DHT22;27562;47.524;12.404;2024-01-10T14:41:07;-2.00;99.90
41882;DHT22;27562;47.524;12.404;2024-01-10T14:43:36;-2.00;99.90
41882;DHT22;27562;47.524;12.404;2024-01-10T14:46:01;-2.00;99.90
41882;DHT22;27562;47.524;12.404;2024-01-10T14:48:28;-2.10;99.90
41882;DHT22;27562;47.524;12.404;2024-01-10T14:50:53;-2.10;99.90
41882;DHT22;27562;47.524;12.404;2024-01-10T14:53:19;-2.10;99.90
41882;DHT22;27562;47.524;12.404;2024-01-10T14:55:44;-2.10;99.90
41882;DHT22;27562;47.524;12.404;2024-01-10T14:58:10;-2.20;99.90
41882;DHT22;27562;47.524;12.404;2024-01-10T15:00:36;-2.20;99.90
41882;DHT22;27562;47.524;12.404;2024-01-10T15:03:02;-2.20;99.90
41882;DHT22;27562;47.524;12.404;2024-01-10T15:05:29;-2.30;99.90
41882;DHT22;27562;47.524;12.404;2024-01-10T15:07:55;-2.40;99.90
41882;DHT22;27562;47.524;12.404;2024-01-10T15:10:21;-2.40;99.90
41882;DHT22;27562;47.524;12.404;2024-01-10T15:12:46;-2.50;99.90
41882;DHT22;27562;47.524;12.404;2024-01-10T15:15:12;-2.60;99.90
41882;DHT22;27562;47.524;12.404;2024-01-10T15:17:38;-2.60;99.90
41882;DHT22;27562;47.524;12.404;2024-01-10T15:20:05;-2.70;99.90
41882;DHT22;27562;47.524;12.404;2024-01-10T15:22:32;-2.80;99.90